createdAt,value
2023-03-08T00:02:03.095Z,100.00
2023-03-08T00:04:33.723Z,100.00
2023-03-08T00:07:08.082Z,100.00
2023-03-08T00:09:38.945Z,100.00
2023-03-08T00:14:50.165Z,100.00
2023-03-08T00:17:20.168Z,100.00
2023-03-08T00:19:49.502Z,100.00
2023-03-08T00:22:20.596Z,100.00
2023-03-08T00:24:49.881Z,100.00
2023-03-08T00:27:19.096Z,100.00
2023-03-08T00:29:48.458Z,100.00
2023-03-08T00:32:18.407Z,100.00
2023-03-08T00:34:48.506Z,100.00
2023-03-08T00:37:19.682Z,100.00
2023-03-08T00:39:54.529Z,100.00
2023-03-08T00:45:00.921Z,100.00
2023-03-08T00:47:30.257Z,100.00
2023-03-08T00:49:59.583Z,100.00
2023-03-08T00:52:35.742Z,100.00
2023-03-08T00:55:04.924Z,100.00
2023-03-08T00:57:34.406Z,100.00
2023-03-08T01:00:07.959Z,100.00
2023-03-08T01:02:37.193Z,100.00
2023-03-08T01:05:06.909Z,100.00
2023-03-08T01:07:43.210Z,100.00
2023-03-08T01:10:13.572Z,100.00
2023-03-08T01:12:44.155Z,100.00
2023-03-08T01:15:15.838Z,100.00
2023-03-08T01:17:45.326Z,100.00
2023-03-08T01:20:15.395Z,100.00
2023-03-08T01:22:46.461Z,100.00
2023-03-08T01:25:15.774Z,100.00
2023-03-08T01:27:44.945Z,100.00
2023-03-08T01:30:20.286Z,100.00
2023-03-08T01:32:49.448Z,100.00
2023-03-08T01:35:20.817Z,100.00
2023-03-08T01:37:54.952Z,100.00
2023-03-08T01:40:29.626Z,100.00
2023-03-08T01:43:23.368Z,100.00
2023-03-08T01:46:32.076Z,100.00
2023-03-08T01:49:16.105Z,100.00
2023-03-08T01:51:54.072Z,100.00
2023-03-08T01:54:30.626Z,100.00
2023-03-08T01:57:05.182Z,100.00
2023-03-08T01:59:35.746Z,100.00
2023-03-08T02:02:04.936Z,100.00
2023-03-08T02:04:38.949Z,100.00
2023-03-08T02:07:12.228Z,100.00
2023-03-08T02:09:44.614Z,100.00
2023-03-08T02:12:20.470Z,100.00
2023-03-08T02:14:50.145Z,100.00
2023-03-08T02:17:19.301Z,100.00
2023-03-08T02:19:54.837Z,100.00
2023-03-08T02:22:24.336Z,100.00
2023-03-08T02:24:55.419Z,100.00
2023-03-08T02:27:27.954Z,100.00
2023-03-08T02:29:57.146Z,100.00
2023-03-08T02:32:26.257Z,100.00
2023-03-08T02:34:55.499Z,100.00
2023-03-08T02:37:24.702Z,100.00
2023-03-08T02:39:55.987Z,100.00
2023-03-08T02:42:30.337Z,100.00
2023-03-08T02:45:04.604Z,100.00
2023-03-08T02:47:35.641Z,100.00
2023-03-08T02:50:11.491Z,100.00
2023-03-08T02:52:41.027Z,100.00
2023-03-08T02:55:13.177Z,100.00
2023-03-08T02:57:42.688Z,100.00
2023-03-08T03:00:13.345Z,100.00
2023-03-08T03:05:22.649Z,100.00
2023-03-08T03:07:52.141Z,100.00
2023-03-08T03:10:29.990Z,100.00
2023-03-08T03:12:59.578Z,100.00
2023-03-08T03:15:32.481Z,100.00
2023-03-08T03:18:02.229Z,100.00
2023-03-08T03:20:31.273Z,100.00
2023-03-08T03:23:01.009Z,100.00
2023-03-08T03:25:42.976Z,100.00
2023-03-08T03:28:20.239Z,100.00
2023-03-08T03:30:50.676Z,100.00
2023-03-08T03:33:19.926Z,100.00
2023-03-08T03:35:54.584Z,100.00
2023-03-08T03:38:24.556Z,100.00
2023-03-08T03:41:10.139Z,100.00
2023-03-08T03:43:40.606Z,100.00
2023-03-08T03:46:17.864Z,99.82
2023-03-08T03:48:50.014Z,99.86
2023-03-08T03:51:24.116Z,99.34
2023-03-08T03:54:02.929Z,99.03
2023-03-08T03:56:34.678Z,99.03
2023-03-08T03:59:04.528Z,99.23
2023-03-08T04:01:34.288Z,99.22
2023-03-08T04:04:15.622Z,98.85
2023-03-08T04:06:46.880Z,99.10
2023-03-08T04:09:25.506Z,98.86
2023-03-08T04:12:10.359Z,98.67
2023-03-08T04:14:41.984Z,99.01
2023-03-08T04:17:13.972Z,99.03
2023-03-08T04:19:57.595Z,98.75
2023-03-08T04:22:37.133Z,98.88
2023-03-08T04:25:17.836Z,98.82
2023-03-08T04:27:55.574Z,98.61
2023-03-08T04:30:31.454Z,98.70
2023-03-08T04:33:02.621Z,98.79
2023-03-08T04:35:45.041Z,98.17
2023-03-08T04:38:15.512Z,97.93
2023-03-08T04:41:11.809Z,97.97
2023-03-08T04:44:02.636Z,97.77
2023-03-08T04:46:46.479Z,97.86
2023-03-08T04:49:21.698Z,97.95
2023-03-08T04:51:55.639Z,98.15
2023-03-08T04:54:27.581Z,98.02
2023-03-08T04:57:03.524Z,98.34
2023-03-08T04:59:37.187Z,98.07
2023-03-08T05:02:08.537Z,97.84
2023-03-08T05:04:40.361Z,98.16
2023-03-08T05:07:15.452Z,97.89
2023-03-08T05:09:46.072Z,97.97
2023-03-08T05:12:16.140Z,97.55
2023-03-08T05:15:00.561Z,97.76
2023-03-08T05:17:32.412Z,97.29
2023-03-08T05:20:02.015Z,97.64
2023-03-08T05:22:55.088Z,97.39
2023-03-08T05:25:28.205Z,97.70
2023-03-08T05:27:57.541Z,96.97
2023-03-08T05:30:47.635Z,97.15
2023-03-08T05:33:27.040Z,96.50
2023-03-08T05:35:57.084Z,96.48
2023-03-08T05:38:31.682Z,96.25
2023-03-08T05:41:03.372Z,96.69
2023-03-08T05:46:18.472Z,96.38
2023-03-08T05:48:48.654Z,96.09
2023-03-08T05:51:21.380Z,95.74
2023-03-08T05:53:56.275Z,95.07
2023-03-08T05:56:26.501Z,94.72
2023-03-08T05:59:07.248Z,94.26
2023-03-08T06:01:38.301Z,93.70
2023-03-08T06:04:30.384Z,93.37
2023-03-08T06:07:00.037Z,92.95
2023-03-08T06:09:35.755Z,93.32
2023-03-08T06:12:06.501Z,92.96
2023-03-08T06:14:36.809Z,92.67
2023-03-08T06:17:08.143Z,92.40
2023-03-08T06:19:42.953Z,92.57
2023-03-08T06:22:14.111Z,92.16
2023-03-08T06:24:43.326Z,91.11
2023-03-08T06:27:12.534Z,89.93
2023-03-08T06:29:49.546Z,89.95
2023-03-08T06:32:21.219Z,89.57
2023-03-08T06:34:50.798Z,89.13
2023-03-08T06:37:20.380Z,88.61
2023-03-08T06:39:49.688Z,88.46
2023-03-08T06:42:25.786Z,87.85
2023-03-08T06:45:00.776Z,86.97
2023-03-08T06:47:39.085Z,87.12
2023-03-08T06:50:09.080Z,86.44
2023-03-08T06:52:40.421Z,86.54
2023-03-08T06:55:12.311Z,86.46
2023-03-08T06:57:46.650Z,86.00
2023-03-08T07:00:17.018Z,86.14
2023-03-08T07:02:54.346Z,85.30
2023-03-08T07:05:24.442Z,84.19
2023-03-08T07:07:53.639Z,83.99
2023-03-08T07:10:24.171Z,83.02
2023-03-08T07:12:53.546Z,82.99
2023-03-08T07:15:28.327Z,82.94
2023-03-08T07:18:00.662Z,82.94
2023-03-08T07:20:30.190Z,82.22
2023-03-08T07:23:01.288Z,81.70
2023-03-08T07:25:31.649Z,81.02
2023-03-08T07:28:01.940Z,80.51
2023-03-08T07:30:31.263Z,80.89
2023-03-08T07:33:02.493Z,80.04
2023-03-08T07:35:31.788Z,80.10
2023-03-08T07:38:01.275Z,78.72
2023-03-08T07:40:30.680Z,77.29
2023-03-08T07:43:00.281Z,77.64
2023-03-08T07:45:46.392Z,77.25
2023-03-08T07:48:17.522Z,75.68
2023-03-08T07:50:52.055Z,75.51
2023-03-08T07:53:27.947Z,75.38
2023-03-08T07:56:00.828Z,75.78
2023-03-08T07:58:31.360Z,75.55
2023-03-08T08:01:00.687Z,75.07
2023-03-08T08:03:33.233Z,74.85
2023-03-08T08:06:05.679Z,74.86
2023-03-08T08:08:35.384Z,74.12
2023-03-08T08:11:04.391Z,72.43
2023-03-08T08:13:39.839Z,73.07
2023-03-08T08:16:09.557Z,72.88
2023-03-08T08:18:41.404Z,72.28
2023-03-08T08:21:11.098Z,72.38
2023-03-08T08:23:41.026Z,72.22
2023-03-08T08:26:17.827Z,71.82
2023-03-08T08:28:48.675Z,70.78
2023-03-08T08:31:25.411Z,70.40
2023-03-08T08:33:56.745Z,71.00
2023-03-08T08:36:26.341Z,71.07
2023-03-08T08:38:56.069Z,70.66
2023-03-08T08:41:32.668Z,70.32
2023-03-08T08:44:02.313Z,70.47
2023-03-08T08:46:33.765Z,70.85
2023-03-08T08:49:06.538Z,69.89
2023-03-08T08:51:35.781Z,70.36
2023-03-08T08:54:05.469Z,70.06
2023-03-08T08:56:35.177Z,69.80
2023-03-08T08:59:05.633Z,69.62
2023-03-08T09:01:43.331Z,68.41
2023-03-08T09:04:20.333Z,68.32
2023-03-08T09:06:49.693Z,68.63
2023-03-08T09:09:20.135Z,69.18
2023-03-08T09:11:55.989Z,69.51
2023-03-08T09:14:25.489Z,69.76
2023-03-08T09:17:00.314Z,69.84
2023-03-08T09:19:31.599Z,69.39
2023-03-08T09:22:00.749Z,69.49
2023-03-08T09:24:29.954Z,69.04
2023-03-08T09:26:59.270Z,68.88
2023-03-08T09:29:28.550Z,68.99
2023-03-08T09:31:58.764Z,68.44
2023-03-08T09:34:30.398Z,68.42
2023-03-08T09:36:59.545Z,68.00
2023-03-08T09:39:29.249Z,68.10
2023-03-08T09:42:00.528Z,67.38
2023-03-08T09:44:53.925Z,66.44
2023-03-08T09:47:34.681Z,66.55
2023-03-08T09:50:16.581Z,66.56
2023-03-08T09:52:51.727Z,66.14
2023-03-08T09:55:31.605Z,65.94
2023-03-08T09:58:03.919Z,65.39
2023-03-08T10:00:50.012Z,65.45
2023-03-08T10:03:51.774Z,63.71
2023-03-08T10:06:30.980Z,63.61
2023-03-08T10:09:10.927Z,63.70
2023-03-08T10:11:47.884Z,64.34
2023-03-08T10:14:28.469Z,64.42
2023-03-08T10:17:01.677Z,65.65
2023-03-08T10:19:36.651Z,64.82
2023-03-08T10:22:11.404Z,64.60
2023-03-08T10:24:47.105Z,64.44
2023-03-08T10:27:21.751Z,64.28
2023-03-08T10:29:52.356Z,64.26
2023-03-08T10:32:22.191Z,64.41
2023-03-08T10:34:52.442Z,63.99
2023-03-08T10:37:24.674Z,63.90
2023-03-08T10:39:57.004Z,64.28
2023-03-08T10:42:28.920Z,64.34
2023-03-08T10:45:02.173Z,64.39
2023-03-08T10:47:35.862Z,64.13
2023-03-08T10:50:11.495Z,64.29
2023-03-08T10:52:48.872Z,64.10
2023-03-08T10:55:20.802Z,63.98
2023-03-08T10:57:53.732Z,63.77
2023-03-08T11:00:42.258Z,63.26
2023-03-08T11:03:18.443Z,63.78
2023-03-08T11:05:57.642Z,63.87
2023-03-08T11:08:31.369Z,63.75
2023-03-08T11:11:06.777Z,63.64
2023-03-08T11:13:38.078Z,63.50
2023-03-08T11:16:23.417Z,62.31
2023-03-08T11:19:04.988Z,62.25
2023-03-08T11:21:43.074Z,62.60
2023-03-08T11:24:25.592Z,62.45
2023-03-08T11:27:08.107Z,63.06
2023-03-08T11:29:52.092Z,62.51
2023-03-08T11:32:38.428Z,61.67
2023-03-08T11:35:24.386Z,61.92
2023-03-08T11:38:01.826Z,62.27
2023-03-08T11:40:45.186Z,62.10
2023-03-08T11:43:30.118Z,61.67
2023-03-08T11:46:07.833Z,61.66
2023-03-08T11:48:57.391Z,62.32
2023-03-08T11:51:39.796Z,62.36
2023-03-08T11:54:17.896Z,62.36
2023-03-08T11:59:39.574Z,62.62
2023-03-08T12:05:04.222Z,62.78
2023-03-08T12:07:38.826Z,62.77
2023-03-08T12:10:17.779Z,62.61
2023-03-08T12:12:57.999Z,62.42
2023-03-08T12:15:32.779Z,62.75
2023-03-08T12:18:08.353Z,62.97
2023-03-08T12:20:46.019Z,63.61
2023-03-08T12:23:27.082Z,63.21
2023-03-08T12:26:01.556Z,64.12
2023-03-08T12:28:36.597Z,63.92
2023-03-08T12:31:28.674Z,63.34
2023-03-08T12:34:05.036Z,63.61
2023-03-08T12:36:41.515Z,63.99
2023-03-08T12:39:26.718Z,64.19
2023-03-08T12:42:01.820Z,65.28
2023-03-08T12:53:02.908Z,64.70
2023-03-08T12:55:33.125Z,65.40
2023-03-08T12:58:04.657Z,65.91
2023-03-08T13:00:37.241Z,66.31
2023-03-08T13:03:08.875Z,66.38
2023-03-08T13:05:39.673Z,66.60
2023-03-08T13:08:42.589Z,66.20
2023-03-08T13:11:15.832Z,66.43
2023-03-08T13:13:55.630Z,66.09
2023-03-08T13:16:33.634Z,66.31
2023-03-08T13:19:09.024Z,66.48
2023-03-08T13:21:45.504Z,66.72
2023-03-08T13:24:23.218Z,66.85
2023-03-08T13:27:06.675Z,67.25
2023-03-08T13:29:36.740Z,66.93
2023-03-08T13:32:15.207Z,66.89
2023-03-08T13:34:50.978Z,67.15
2023-03-08T13:37:25.471Z,67.99
2023-03-08T13:40:06.726Z,67.57
2023-03-08T13:42:35.911Z,68.07
2023-03-08T13:45:10.702Z,68.42
2023-03-08T13:47:41.286Z,69.00
2023-03-08T13:50:26.028Z,69.37
2023-03-08T13:52:55.966Z,69.29
2023-03-08T13:55:37.992Z,69.41
2023-03-08T13:58:07.858Z,69.20
2023-03-08T14:00:38.003Z,69.75
2023-03-08T14:03:08.294Z,69.89
2023-03-08T14:05:45.393Z,70.97
2023-03-08T14:08:21.520Z,71.76
2023-03-08T14:11:00.819Z,72.51
2023-03-08T14:13:32.765Z,72.23
2023-03-08T14:16:08.670Z,73.34
2023-03-08T14:18:41.292Z,73.38
2023-03-08T14:21:17.191Z,74.46
2023-03-08T14:23:50.961Z,75.82
2023-03-08T14:26:33.328Z,75.41
2023-03-08T14:29:21.349Z,76.16
2023-03-08T14:31:59.968Z,77.56
2023-03-08T14:34:33.428Z,77.90
2023-03-08T14:37:05.370Z,78.85
2023-03-08T14:39:35.175Z,80.17
2023-03-08T14:42:22.185Z,80.24
2023-03-08T14:44:53.841Z,80.16
2023-03-08T14:47:25.805Z,81.29
2023-03-08T14:50:03.562Z,81.84
2023-03-08T14:52:37.101Z,81.97
2023-03-08T14:55:24.069Z,83.78
2023-03-08T14:57:58.235Z,83.08
2023-03-08T15:00:29.367Z,83.82
2023-03-08T15:03:03.155Z,84.16
2023-03-08T15:05:32.748Z,84.87
2023-03-08T15:08:03.548Z,84.50
2023-03-08T15:10:36.786Z,85.32
2023-03-08T15:13:13.800Z,85.55
2023-03-08T15:15:43.203Z,86.06
2023-03-08T15:18:17.065Z,86.09
2023-03-08T15:20:49.723Z,86.67
2023-03-08T15:23:22.227Z,86.70
2023-03-08T15:25:52.132Z,86.68
2023-03-08T15:28:35.481Z,87.68
2023-03-08T15:31:04.959Z,87.64
2023-03-08T15:33:34.048Z,88.71
2023-03-08T15:36:09.020Z,88.71
2023-03-08T15:38:38.279Z,89.38
2023-03-08T15:41:07.552Z,89.07
2023-03-08T15:43:38.658Z,89.05
2023-03-08T15:46:13.915Z,89.24
2023-03-08T15:48:46.888Z,89.46
2023-03-08T15:51:20.153Z,90.00
2023-03-08T15:53:54.655Z,89.78
2023-03-08T15:56:25.164Z,90.61
2023-03-08T15:59:01.970Z,90.63
2023-03-08T16:01:32.902Z,90.92
2023-03-08T16:04:07.695Z,91.26
2023-03-08T16:06:36.925Z,91.75
2023-03-08T16:09:06.348Z,91.82
2023-03-08T16:11:35.815Z,91.99
2023-03-08T16:14:06.987Z,92.22
2023-03-08T16:16:45.219Z,92.67
2023-03-08T16:19:15.232Z,92.35
2023-03-08T16:21:44.474Z,92.56
2023-03-08T16:24:18.922Z,92.83
2023-03-08T16:26:53.234Z,93.69
2023-03-08T16:29:27.543Z,93.51
2023-03-08T16:31:57.674Z,93.69
2023-03-08T16:34:27.397Z,94.08
2023-03-08T16:36:57.022Z,93.31
2023-03-08T16:39:31.306Z,93.64
2023-03-08T16:42:00.427Z,94.27
2023-03-08T16:44:38.268Z,94.45
2023-03-08T16:47:07.953Z,94.28
2023-03-08T16:49:37.936Z,94.07
2023-03-08T16:52:13.641Z,94.18
2023-03-08T16:54:42.964Z,94.40
2023-03-08T16:57:19.940Z,94.86
2023-03-08T16:59:51.946Z,95.32
2023-03-08T17:02:22.805Z,95.59
2023-03-08T17:04:51.965Z,95.96
2023-03-08T17:07:21.042Z,95.59
2023-03-08T17:09:50.338Z,96.11
2023-03-08T17:12:19.880Z,96.41
2023-03-08T17:14:57.397Z,96.35
2023-03-08T17:17:31.678Z,96.91
2023-03-08T17:20:00.959Z,97.10
2023-03-08T17:22:33.221Z,97.20
2023-03-08T17:25:02.636Z,97.37
2023-03-08T17:27:32.498Z,96.76
2023-03-08T17:30:13.810Z,97.48
2023-03-08T17:32:43.054Z,97.61
2023-03-08T17:35:12.442Z,97.21
2023-03-08T17:37:42.009Z,97.07
2023-03-08T17:40:13.688Z,97.38
2023-03-08T17:42:43.516Z,97.95
2023-03-08T17:45:15.332Z,97.36
2023-03-08T17:47:44.387Z,98.19
2023-03-08T17:50:14.808Z,97.39
2023-03-08T17:52:44.006Z,97.43
2023-03-08T17:55:13.479Z,98.15
2023-03-08T17:57:42.762Z,98.10
2023-03-08T18:00:15.751Z,98.71
2023-03-08T18:02:45.521Z,98.75
2023-03-08T18:05:15.819Z,98.13
2023-03-08T18:07:45.392Z,98.74
2023-03-08T18:10:14.679Z,98.81
2023-03-08T18:12:43.949Z,98.83
2023-03-08T18:15:15.558Z,99.25
2023-03-08T18:17:49.898Z,99.26
2023-03-08T18:20:20.221Z,99.54
2023-03-08T18:22:50.419Z,99.11
2023-03-08T18:25:20.441Z,99.27
2023-03-08T18:27:49.988Z,99.29
2023-03-08T18:30:22.489Z,98.99
2023-03-08T18:32:51.873Z,99.58
2023-03-08T18:35:20.996Z,99.40
2023-03-08T18:37:55.333Z,99.38
2023-03-08T18:40:26.578Z,99.79
2023-03-08T18:42:56.070Z,100.00
2023-03-08T18:45:28.271Z,100.00
2023-03-08T18:47:57.547Z,100.00
2023-03-08T18:50:27.261Z,99.90
2023-03-08T18:53:01.578Z,100.00
2023-03-08T18:55:30.859Z,100.00
2023-03-08T18:58:00.120Z,100.00
2023-03-08T19:00:31.418Z,100.00
2023-03-08T19:03:00.642Z,100.00
2023-03-08T19:05:29.799Z,100.00
2023-03-08T19:07:58.906Z,100.00
2023-03-08T19:10:28.153Z,100.00
2023-03-08T19:12:57.368Z,100.00
2023-03-08T19:15:26.682Z,100.00
2023-03-08T19:17:59.592Z,100.00
2023-03-08T19:20:29.728Z,100.00
2023-03-08T19:22:58.855Z,100.00
2023-03-08T19:25:34.400Z,100.00
2023-03-08T19:28:12.046Z,100.00
2023-03-08T19:30:46.535Z,100.00
2023-03-08T19:33:29.663Z,100.00
2023-03-08T19:36:00.516Z,100.00
2023-03-08T19:38:29.772Z,100.00
2023-03-08T19:41:01.471Z,100.00
2023-03-08T19:43:30.714Z,100.00
2023-03-08T19:46:02.099Z,100.00
2023-03-08T19:48:34.018Z,100.00
2023-03-08T19:51:04.722Z,100.00
2023-03-08T19:53:33.818Z,100.00
2023-03-08T19:56:14.947Z,100.00
2023-03-08T19:58:49.450Z,100.00
2023-03-08T20:01:21.224Z,100.00
2023-03-08T20:03:52.643Z,100.00
2023-03-08T20:06:27.689Z,100.00
2023-03-08T20:08:57.722Z,99.86
2023-03-08T20:11:27.104Z,99.11
2023-03-08T20:14:04.236Z,98.55
2023-03-08T20:16:33.760Z,97.51
2023-03-08T20:19:05.299Z,96.61
2023-03-08T20:21:34.630Z,96.49
2023-03-08T20:24:03.849Z,94.93
2023-03-08T20:26:42.555Z,94.46
2023-03-08T20:29:11.822Z,94.26
2023-03-08T20:31:41.170Z,93.98
2023-03-08T20:34:12.697Z,92.93
2023-03-08T20:36:42.046Z,93.33
2023-03-08T20:39:14.789Z,92.78
2023-03-08T20:44:24.451Z,92.26
2023-03-08T20:46:53.649Z,91.95
2023-03-08T20:49:30.930Z,92.16
2023-03-08T20:52:00.519Z,91.69
2023-03-08T20:54:29.689Z,91.90
2023-03-08T20:56:59.363Z,91.63
2023-03-08T20:59:29.821Z,90.90
2023-03-08T21:04:36.450Z,91.11
2023-03-08T21:07:07.091Z,90.33
2023-03-08T21:09:37.811Z,90.73
2023-03-08T21:12:12.032Z,89.64
2023-03-08T21:14:41.266Z,89.23
2023-03-08T21:17:10.442Z,88.64
2023-03-08T21:19:41.727Z,87.36
2023-03-08T21:22:13.326Z,87.83
2023-03-08T21:24:42.610Z,86.22
2023-03-08T21:27:13.360Z,86.56
2023-03-08T21:29:47.037Z,85.37
2023-03-08T21:32:16.240Z,84.68
2023-03-08T21:34:47.450Z,84.53
2023-03-08T21:37:16.715Z,85.22
2023-03-08T21:39:45.934Z,84.82
2023-03-08T21:42:15.217Z,85.23
2023-03-08T21:44:44.441Z,85.29
2023-03-08T21:47:13.860Z,85.03
2023-03-08T21:49:48.625Z,85.10
2023-03-08T21:52:19.880Z,85.25
2023-03-08T21:54:49.130Z,85.60
2023-03-08T21:57:18.227Z,85.18
2023-03-08T21:59:47.490Z,85.42
2023-03-08T22:02:16.634Z,85.31
2023-03-08T22:04:45.833Z,85.85
2023-03-08T22:07:14.929Z,86.30
2023-03-08T22:09:46.217Z,86.28
2023-03-08T22:12:15.378Z,86.45
2023-03-08T22:14:44.588Z,86.82
2023-03-08T22:17:15.310Z,87.00
2023-03-08T22:19:44.528Z,87.24
2023-03-08T22:22:13.757Z,87.14
2023-03-08T22:24:47.987Z,87.48
2023-03-08T22:27:19.250Z,88.32
2023-03-08T22:32:25.111Z,88.24
2023-03-08T22:34:54.198Z,88.06
2023-03-08T22:37:23.848Z,87.88
2023-03-08T22:39:52.960Z,87.74
2023-03-08T22:42:24.240Z,88.32
2023-03-08T22:45:00.130Z,87.96
2023-03-08T22:47:34.284Z,88.04
2023-03-08T22:50:09.841Z,88.01
2023-03-08T22:52:39.026Z,87.99
2023-03-08T22:55:09.721Z,88.12
2023-03-08T22:57:40.816Z,88.10
2023-03-08T23:00:13.920Z,88.61
2023-03-08T23:05:15.171Z,89.81
2023-03-08T23:07:45.796Z,89.61
2023-03-08T23:10:16.231Z,89.58
2023-03-08T23:12:53.571Z,89.58
2023-03-08T23:15:22.764Z,89.09
2023-03-08T23:17:51.995Z,89.45
2023-03-08T23:20:22.057Z,90.36
2023-03-08T23:22:53.467Z,90.24
2023-03-08T23:25:27.666Z,89.97
2023-03-08T23:27:58.752Z,89.68
2023-03-08T23:30:29.856Z,88.95
2023-03-08T23:32:59.121Z,88.89
2023-03-08T23:35:28.239Z,88.58
2023-03-08T23:37:57.375Z,88.31
2023-03-08T23:40:26.545Z,88.29
2023-03-08T23:42:55.681Z,88.43
2023-03-08T23:45:26.836Z,88.48
2023-03-08T23:47:56.112Z,88.34
2023-03-08T23:50:25.358Z,88.76
2023-03-08T23:52:54.637Z,89.16
2023-03-08T23:55:23.702Z,89.11
2023-03-08T23:57:52.931Z,89.07
